Time;durP1;ratioP1;P1;durP2;ratioP2;P2;SDS_P1;SDS_P2;PMS_P1;PMS_P2;Temp;Humidity;BMP_temperature;BMP_pressure;BME280_temperature;BME280_humidity;BME280_pressure;Samples;Min_cycle;Max_cycle;Signal;HPM_P1;HPM_P2
2023/10/29 00:02:08;;;;;;;0.43;0.43;;;;;;;15.60;100.00;100287.66;4974874;28;20066;-73
2023/10/29 00:04:35;;;;;;;2.35;1.48;;;;;;;15.48;100.00;100278.22;4975212;28;20146;-74
2023/10/29 00:11:18;;;;;;;0.40;0.40;;;;;;;15.43;100.00;100280.13;4976973;28;20042;-73
2023/10/29 00:13:43;;;;;;;0.30;0.22;;;;;;;15.06;100.00;100267.69;4976036;28;20398;-74
2023/10/29 00:16:24;;;;;;;1.10;0.82;;;;;;;14.67;100.00;100183.03;4972050;28;20129;-74
2023/10/29 00:18:50;;;;;;;3.25;0.40;;;;;;;15.38;100.00;100289.88;4963800;28;20130;-73
2023/10/29 00:21:17;;;;;;;0.30;0.20;;;;;;;15.30;100.00;100303.28;4954299;28;20492;-73
2023/10/29 00:23:43;;;;;;;1.70;1.33;;;;;;;14.54;100.00;100219.41;4957012;28;20038;-73
2023/10/29 00:26:09;;;;;;;1.40;0.80;;;;;;;14.99;100.00;100318.91;4971107;28;20043;-74
2023/10/29 00:28:43;;;;;;;0.57;0.57;;;;;;;14.62;100.00;100223.66;4971054;28;20451;-74
2023/10/29 00:31:08;;;;;;;0.60;0.32;;;;;;;15.03;100.00;100298.56;4962993;28;20049;-73
2023/10/29 00:33:34;;;;;;;0.50;0.28;;;;;;;14.47;100.00;100201.91;4966776;28;20043;-73
2023/10/29 00:36:37;;;;;;;0.63;0.63;;;;;;;15.10;100.00;100330.16;4970014;28;20434;-72
2023/10/29 00:39:10;;;;;;;0.95;0.88;;;;;;;14.96;100.00;100304.00;4963896;28;20485;-72
2023/10/29 00:41:35;;;;;;;0.28;0.28;;;;;;;15.02;100.00;100334.69;4957259;28;20037;-73
2023/10/29 00:44:01;;;;;;;0.30;0.30;;;;;;;14.32;100.00;100212.75;4972270;28;20465;-73
2023/10/29 00:46:27;;;;;;;0.82;0.82;;;;;;;14.81;100.00;100325.41;4970960;28;20039;-74
2023/10/29 00:48:52;;;;;;;0.52;0.52;;;;;;;14.84;100.00;100337.69;4972107;28;20245;-73
2023/10/29 00:51:18;;;;;;;1.23;0.82;;;;;;;14.92;100.00;100343.72;4971239;28;20117;-73
2023/10/29 00:53:44;;;;;;;0.95;0.60;;;;;;;14.85;100.00;100331.53;4972667;28;20031;-74
2023/10/29 00:56:27;;;;;;;0.30;0.30;;;;;;;14.81;100.00;100351.81;4970946;28;20042;-73
2023/10/29 00:59:00;;;;;;;0.68;0.57;;;;;;;14.08;100.00;100225.50;4971911;28;20085;-73
2023/10/29 01:01:26;;;;;;;0.20;0.20;;;;;;;14.34;100.00;100325.31;4966205;28;20125;-73
2023/10/29 01:03:52;;;;;;;0.43;0.43;;;;;;;14.72;100.00;100339.66;4971568;28;20038;-73
2023/10/29 01:06:18;;;;;;;0.77;0.60;;;;;;;14.70;100.00;100320.34;4970767;28;20544;-73
2023/10/29 01:08:44;;;;;;;0.60;0.60;;;;;;;14.00;100.00;100219.50;4968873;28;20027;-73
2023/10/29 01:11:09;;;;;;;1.17;1.05;;;;;;;14.67;100.00;100341.50;4970025;28;20114;-73
2023/10/29 01:13:35;;;;;;;5.82;3.70;;;;;;;14.62;100.00;100319.59;4957785;28;20455;-73
2023/10/29 01:16:21;;;;;;;0.40;0.40;;;;;;;14.20;100.00;100249.94;4971621;28;20038;-73
2023/10/29 01:18:47;;;;;;;0.68;0.57;;;;;;;14.47;100.00;100338.31;4967154;28;20105;-72
2023/10/29 01:21:12;;;;;;;0.47;0.47;;;;;;;14.50;100.00;100331.22;4959951;28;20066;-73
2023/10/29 01:23:38;;;;;;;2.22;1.20;;;;;;;14.00;100.00;100237.97;4966800;28;20054;-72
2023/10/29 01:26:04;;;;;;;0.40;0.30;;;;;;;14.03;100.00;100235.25;4971987;28;20097;-73
2023/10/29 01:28:29;;;;;;;0.65;0.57;;;;;;;14.50;100.00;100344.41;4973974;28;20031;-72
2023/10/29 01:30:54;;;;;;;0.60;0.57;;;;;;;13.84;100.00;100244.38;4970535;28;20382;-73
2023/10/29 01:33:20;;;;;;;0.30;0.30;;;;;;;14.46;100.00;100350.63;4971726;28;20037;-72
2023/10/29 01:35:46;;;;;;;0.70;0.63;;;;;;;13.70;100.00;100221.72;4972470;28;20023;-72
2023/10/29 01:38:11;;;;;;;0.55;0.55;;;;;;;14.11;100.00;100324.81;4972776;28;20035;-72
2023/10/29 01:40:37;;;;;;;0.70;0.50;;;;;;;14.22;100.00;100354.56;4975721;28;20030;-72
2023/10/29 01:49:47;;;;;;;1.65;1.55;;;;;;;14.24;100.00;100333.44;4971356;28;20089;-74
2023/10/29 01:52:13;;;;;;;0.90;0.60;;;;;;;14.28;100.00;100356.22;4969963;28;20027;-74
2023/10/29 01:54:39;;;;;;;0.65;0.65;;;;;;;14.26;100.00;100356.25;4971780;28;20034;-73
2023/10/29 01:57:05;;;;;;;5.00;1.85;;;;;;;14.28;100.00;100374.69;4953871;28;20395;-72
2023/10/29 01:59:30;;;;;;;2.28;1.00;;;;;;;14.03;100.00;100368.94;4955609;28;20027;-72
2023/10/29 02:01:56;;;;;;;3.60;0.90;;;;;;;13.49;100.00;100266.88;4958003;28;20116;-72
2023/10/29 02:04:26;;;;;;;1.23;1.13;;;;;;;13.46;100.00;100269.53;4969219;28;20022;-72
2023/10/29 02:06:55;;;;;;;0.30;0.28;;;;;;;13.58;100.00;100287.84;4967559;28;20435;-72
2023/10/29 02:09:21;;;;;;;0.73;0.73;;;;;;;13.60;100.00;100299.25;4954493;28;20042;-74
2023/10/29 02:11:48;;;;;;;0.30;0.30;;;;;;;13.73;100.00;100355.28;4962492;28;20035;-73
2023/10/29 02:14:14;;;;;;;1.45;0.98;;;;;;;13.39;100.00;100291.59;4970659;28;20043;-73
2023/10/29 02:16:40;;;;;;;0.20;0.20;;;;;;;13.06;100.00;100283.22;4967982;28;20425;-72
2023/10/29 02:19:34;;;;;;;3.03;1.80;;;;;;;13.91;100.00;100397.25;4974317;28;20121;-73
2023/10/29 02:25:50;;;;;;;0.57;0.57;;;;;;;13.75;100.00;100382.53;4972392;28;20482;-74
2023/10/29 02:28:16;;;;;;;0.55;0.40;;;;;;;13.16;100.00;100313.84;4978661;28;20043;-74
2023/10/29 02:30:42;;;;;;;0.77;0.77;;;;;;;13.10;100.00;100312.13;4971389;28;20035;-73
2023/10/29 02:33:08;;;;;;;1.10;1.00;;;;;;;13.57;100.00;100409.13;4962062;28;20363;-73
2023/10/29 02:35:33;;;;;;;1.05;0.95;;;;;;;12.89;100.00;100307.13;4936113;28;20039;-73
2023/10/29 02:37:59;;;;;;;0.60;0.40;;;;;;;13.07;100.00;100338.53;4965090;28;20420;-73
2023/10/29 02:40:30;;;;;;;0.90;0.90;;;;;;;12.95;100.00;100309.69;4981072;28;20042;-74
2023/10/29 02:42:56;;;;;;;1.85;1.10;;;;;;;12.98;100.00;100329.84;4968996;28;20383;-72
2023/10/29 02:45:40;;;;;;;1.05;0.95;;;;;;;13.14;100.00;100325.28;4969827;28;20043;-73
2023/10/29 02:48:12;;;;;;;0.70;0.60;;;;;;;13.66;100.00;100404.59;4953262;28;20067;-74
2023/10/29 02:50:38;;;;;;;2.60;2.25;;;;;;;12.97;100.00;100299.13;4964485;28;20486;-74
2023/10/29 02:53:04;;;;;;;1.95;1.67;;;;;;;13.70;100.00;100435.31;4968752;28;20077;-74
2023/10/29 02:55:29;;;;;;;1.88;1.20;;;;;;;13.04;100.00;100337.66;4969148;28;20058;-73
2023/10/29 02:57:55;;;;;;;0.80;0.80;;;;;;;13.36;100.00;100386.53;4962383;28;20043;-72
2023/10/29 03:00:24;;;;;;;3.72;1.52;;;;;;;13.10;100.00;100327.94;4966261;28;20085;-74
2023/10/29 03:02:49;;;;;;;0.57;0.50;;;;;;;12.89;100.00;100325.56;4970348;28;20055;-74
2023/10/29 03:05:15;;;;;;;1.88;1.05;;;;;;;13.06;100.00;100365.75;4970630;28;20414;-73
2023/10/29 03:07:40;;;;;;;0.30;0.30;;;;;;;13.55;100.00;100438.13;4964489;28;20513;-73
2023/10/29 03:10:06;;;;;;;1.33;1.10;;;;;;;13.08;100.00;100366.59;4965806;28;20047;-74
2023/10/29 03:12:32;;;;;;;0.55;0.55;;;;;;;13.51;100.00;100434.69;4971087;28;20090;-72
2023/10/29 03:15:00;;;;;;;0.80;0.57;;;;;;;12.96;100.00;100347.44;4969750;28;20030;-73
2023/10/29 03:17:25;;;;;;;0.85;0.85;;;;;;;13.39;100.00;100420.75;4970976;28;20546;-73
2023/10/29 03:19:52;;;;;;;1.85;0.73;;;;;;;12.81;100.00;100337.94;4971804;28;20078;-73
2023/10/29 03:22:18;;;;;;;1.05;0.63;;;;;;;12.74;100.00;100331.88;4970802;28;20081;-72
2023/10/29 03:35:40;;;;;;;0.25;0.22;;;;;;;13.48;100.00;100454.91;4977752;28;20067;-74
2023/10/29 03:42:22;;;;;;;3.65;1.13;;;;;;;13.13;100.00;100463.16;4976727;28;20134;-74
2023/10/29 03:44:48;;;;;;;1.27;1.17;;;;;;;12.50;100.00;100359.28;4963142;28;20051;-72
2023/10/29 03:47:13;;;;;;;1.90;1.05;;;;;;;12.51;100.00;100357.53;4971714;28;20037;-72
2023/10/29 03:49:42;;;;;;;0.70;0.70;;;;;;;13.08;100.00;100465.84;4971098;28;20054;-72
2023/10/29 03:52:27;;;;;;;0.45;0.43;;;;;;;13.13;100.00;100473.69;4973672;28;20134;-73
2023/10/29 03:54:52;;;;;;;5.93;1.80;;;;;;;13.09;100.00;100475.50;4971984;28;20051;-73
2023/10/29 03:57:25;;;;;;;0.73;0.57;;;;;;;13.03;100.00;100478.19;4972572;28;20043;-73
2023/10/29 03:59:50;;;;;;;0.70;0.65;;;;;;;12.99;100.00;100487.00;4958959;28;20607;-73
2023/10/29 04:02:16;;;;;;;1.35;1.25;;;;;;;12.63;100.00;100439.88;4961150;28;20157;-73
2023/10/29 04:04:41;;;;;;;0.70;0.70;;;;;;;13.01;100.00;100499.25;4982662;28;20471;-73
2023/10/29 04:07:07;;;;;;;0.88;0.77;;;;;;;12.80;100.00;100497.66;4972778;28;20399;-73
2023/10/29 04:09:32;;;;;;;0.88;0.80;;;;;;;12.74;100.00;100481.94;4973836;28;20074;-72
2023/10/29 04:12:00;;;;;;;1.05;0.85;;;;;;;12.92;100.00;100506.38;4970424;28;20034;-72
2023/10/29 04:14:26;;;;;;;1.65;1.30;;;;;;;12.23;100.00;100389.31;4969654;28;20034;-73
2023/10/29 04:16:51;;;;;;;1.85;1.15;;;;;;;12.85;100.00;100489.72;4976090;28;20039;-73
2023/10/29 04:19:16;;;;;;;1.60;1.40;;;;;;;12.54;100.00;100465.41;4972615;28;20077;-72
2023/10/29 04:21:42;;;;;;;1.15;1.05;;;;;;;12.70;100.00;100498.63;4979912;28;20042;-73
2023/10/29 04:24:08;;;;;;;1.10;0.77;;;;;;;12.61;100.00;100486.41;4989685;28;20125;-72
2023/10/29 04:26:33;;;;;;;1.77;1.42;;;;;;;12.20;100.00;100400.75;4974918;28;20282;-72
2023/10/29 04:28:59;;;;;;;1.20;0.55;;;;;;;11.99;100.00;100378.09;4974532;28;20122;-73
2023/10/29 04:31:25;;;;;;;4.35;2.38;;;;;;;12.79;100.00;100519.63;4976063;28;20395;-72
2023/10/29 04:33:51;;;;;;;1.80;1.52;;;;;;;12.83;100.00;100523.09;4976423;28;20039;-73
2023/10/29 04:36:24;;;;;;;0.47;0.47;;;;;;;12.70;100.00;100526.72;4956110;28;20046;-73
2023/10/29 04:38:50;;;;;;;3.28;2.47;;;;;;;12.00;100.00;100431.56;4973036;28;20042;-73
2023/10/29 04:41:17;;;;;;;2.70;1.50;;;;;;;12.66;100.00;100532.00;4969246;28;20414;-73
2023/10/29 04:43:52;;;;;;;2.30;1.95;;;;;;;12.62;100.00;100539.97;4973577;28;20081;-74
2023/10/29 04:46:18;;;;;;;12.13;2.55;;;;;;;12.66;100.00;100539.91;4963038;28;20042;-73
2023/10/29 04:48:44;;;;;;;2.88;2.60;;;;;;;12.71;100.00;100545.13;4982913;28;20051;-73
2023/10/29 04:51:10;;;;;;;1.92;1.52;;;;;;;12.57;100.00;100539.97;4964024;28;20041;-73
2023/10/29 04:53:36;;;;;;;2.13;1.98;;;;;;;11.93;100.00;100443.84;4971099;28;20037;-72
2023/10/29 04:56:02;;;;;;;4.07;1.95;;;;;;;11.77;100.00;100444.78;4973821;28;20126;-73
2023/10/29 04:58:29;;;;;;;1.13;1.02;;;;;;;12.45;100.00;100553.19;4970459;28;20051;-73
2023/10/29 05:04:37;;;;;;;1.48;1.38;;;;;;;12.44;100.00;100564.63;4973824;28;20148;-73
2023/10/29 05:07:02;;;;;;;1.30;1.15;;;;;;;12.45;100.00;100563.72;4960132;28;20126;-73
2023/10/29 05:09:28;;;;;;;1.50;1.40;;;;;;;11.85;100.00;100474.56;4956142;28;20097;-74
2023/10/29 05:11:54;;;;;;;1.52;1.33;;;;;;;12.51;100.00;100573.34;4953504;28;20035;-74
2023/10/29 05:14:23;;;;;;;1.33;1.23;;;;;;;11.88;100.00;100492.97;4968420;28;20024;-73
2023/10/29 05:16:49;;;;;;;3.15;2.85;;;;;;;12.39;100.00;100571.66;4974019;28;20050;-73
2023/10/29 05:19:15;;;;;;;2.85;2.35;;;;;;;11.71;100.00;100474.59;4969074;28;20081;-74
2023/10/29 05:21:40;;;;;;;2.55;2.35;;;;;;;11.81;100.00;100493.84;4964059;28;20486;-72
2023/10/29 05:24:08;;;;;;;5.13;3.00;;;;;;;11.95;100.00;100565.69;4970907;28;20031;-73
2023/10/29 05:29:55;;;;;;;2.08;1.88;;;;;;;12.24;100.00;100597.16;4975890;28;20074;-72
2023/10/29 05:32:50;;;;;;;8.15;2.28;;;;;;;12.21;100.00;100610.31;4975860;28;20030;-72
2023/10/29 05:38:37;;;;;;;1.25;1.15;;;;;;;12.16;100.00;100617.34;4975728;28;20093;-72
2023/10/29 05:44:25;;;;;;;1.60;1.40;;;;;;;12.15;100.00;100626.13;4975667;28;20602;-74
2023/10/29 05:50:43;;;;;;;2.38;1.60;;;;;;;12.23;100.00;100639.25;4976383;28;20065;-72
2023/10/29 05:53:10;;;;;;;2.35;2.03;;;;;;;12.25;100.00;100619.09;4974295;28;20042;-73
2023/10/29 05:55:35;;;;;;;6.75;3.72;;;;;;;12.14;100.00;100620.88;4974889;28;20069;-73
2023/10/29 05:58:01;;;;;;;1.58;1.38;;;;;;;12.16;100.00;100645.41;4974473;28;20468;-75
2023/10/29 06:03:48;;;;;;;1.90;1.73;;;;;;;11.58;100.00;100525.44;4974457;28;20046;-74
2023/10/29 06:06:13;;;;;;;3.00;1.85;;;;;;;12.53;100.00;100654.06;4973835;28;20035;-74
2023/10/29 06:08:40;;;;;;;1.52;1.42;;;;;;;12.34;100.00;100624.31;4975180;28;20027;-73
2023/10/29 06:11:05;;;;;;;0.20;0.20;;;;;;;12.37;100.00;100636.59;4974059;28;20043;-74
2023/10/29 06:20:45;;;;;;;0.45;0.43;;;;;;;12.64;100.00;100664.53;4974316;28;20197;-74
2023/10/29 06:23:49;;;;;;;1.40;1.02;;;;;;;12.82;100.00;100668.84;4971538;28;20055;-73
2023/10/29 06:29:39;;;;;;;3.20;2.90;;;;;;;12.48;100.00;100578.63;4955464;28;20066;-73
2023/10/29 06:32:05;;;;;;;1.92;1.33;;;;;;;12.94;100.00;100654.72;4953185;28;20043;-73
2023/10/29 06:34:30;;;;;;;2.17;1.67;;;;;;;13.08;100.00;100666.91;4954546;28;20388;-73
2023/10/29 06:36:56;;;;;;;2.03;1.75;;;;;;;12.69;100.00;100583.78;4954609;28;20043;-73
2023/10/29 06:42:43;;;;;;;1.30;1.15;;;;;;;12.76;100.00;100545.09;4955935;28;20137;-73
2023/10/29 06:45:09;;;;;;;1.83;1.65;;;;;;;12.79;100.00;100543.34;4970517;28;20031;-73
2023/10/29 06:47:35;;;;;;;0.75;0.63;;;;;;;12.53;100.00;100550.53;5005475;28;20054;-74
2023/10/29 06:50:01;;;;;;;1.48;1.38;;;;;;;12.93;100.00;100645.09;4973500;28;20073;-72
2023/10/29 06:52:31;;;;;;;2.70;2.13;;;;;;;12.65;100.00;100590.81;4973466;28;20042;-73
2023/10/29 06:54:56;;;;;;;3.10;2.80;;;;;;;12.76;100.00;100577.59;4973048;28;20054;-72
2023/10/29 06:57:22;;;;;;;3.17;2.05;;;;;;;13.66;100.00;100670.94;4973577;28;20038;-74
2023/10/29 06:59:51;;;;;;;1.63;1.52;;;;;;;13.57;100.00;100672.78;4973806;28;20026;-73
2023/10/29 07:02:16;;;;;;;1.55;1.20;;;;;;;13.73;100.00;100674.41;4973407;28;20042;-73
2023/10/29 07:04:42;;;;;;;1.65;1.55;;;;;;;13.28;100.00;100606.22;4973210;28;20403;-73
2023/10/29 07:07:07;;;;;;;2.17;1.30;;;;;;;13.72;100.00;100681.44;4971895;28;20039;-72
2023/10/29 07:12:56;;;;;;;1.00;0.75;;;;;;;13.52;100.00;100580.53;4970719;28;20078;-75
2023/10/29 07:18:52;;;;;;;2.08;1.85;;;;;;;14.48;100.00;100700.03;4973509;28;20038;-74
2023/10/29 07:21:17;;;;;;;3.38;2.40;;;;;;;14.28;100.00;100694.06;4969558;28;20043;-73
2023/10/29 07:27:04;;;;;;;0.80;0.80;;;;;;;14.13;100.00;100587.78;4974018;28;20426;-73
2023/10/29 07:29:30;;;;;;;3.63;1.80;;;;;;;14.81;100.00;100695.25;4973447;28;20031;-73
2023/10/29 07:31:56;;;;;;;4.13;2.83;;;;;;;14.41;100.00;100627.06;4972941;28;20042;-73
2023/10/29 07:34:22;;;;;;;1.30;1.20;;;;;;;14.94;100.00;100702.13;4973155;28;20045;-73
2023/10/29 07:40:55;;;;;;;6.72;2.05;;;;;;;15.19;100.00;100702.69;4973243;28;20101;-76
2023/10/29 07:43:21;;;;;;;1.67;1.50;;;;;;;15.06;100.00;100668.50;4972763;28;20047;-73
2023/10/29 07:45:47;;;;;;;2.53;1.33;;;;;;;15.30;100.00;100683.13;4971537;28;20051;-73
2023/10/29 07:48:17;;;;;;;4.95;3.92;;;;;;;15.16;100.00;100652.47;4972813;28;20042;-73
2023/10/29 07:54:05;;;;;;;3.25;1.80;;;;;;;15.77;100.00;100702.69;4973888;28;20097;-77
2023/10/29 07:56:51;;;;;;;2.95;1.75;;;;;;;15.92;100.00;100718.31;4972329;28;20161;-76
2023/10/29 07:59:16;;;;;;;1.58;1.35;;;;;;;15.32;100.00;100599.38;4970535;28;20034;-76
2023/10/29 08:05:03;;;;;;;0.20;0.20;;;;;;;15.64;100.00;100606.75;4972795;28;20340;-75
2023/10/29 08:10:52;;;;;;;0.77;0.77;;;;;;;15.83;100.00;100626.72;4971900;28;20038;-76
2023/10/29 08:13:17;;;;;;;1.08;0.93;;;;;;;15.94;100.00;100630.94;4974825;28;20042;-76
2023/10/29 08:15:43;;;;;;;1.48;1.23;;;;;;;16.43;100.00;100710.31;4976174;28;20038;-78
2023/10/29 08:18:08;;;;;;;0.88;0.85;;;;;;;16.56;100.00;100732.16;4990990;28;20154;-77
2023/10/29 08:21:00;;;;;;;2.15;1.73;;;;;;;16.70;100.00;100720.41;4973145;28;20382;-79
2023/10/29 08:26:47;;;;;;;0.50;0.50;;;;;;;16.90;100.00;100722.66;4976493;28;20138;-74
2023/10/29 08:29:14;;;;;;;1.27;1.05;;;;;;;16.88;100.00;100714.75;4976029;28;20058;-75
2023/10/29 08:31:42;;;;;;;1.95;1.58;;;;;;;17.04;100.00;100736.50;4975593;28;20047;-76
2023/10/29 08:34:07;;;;;;;2.00;1.80;;;;;;;16.96;100.00;100696.91;4975593;28;20039;-76
2023/10/29 08:39:57;;;;;;;3.38;2.70;;;;;;;16.99;100.00;100703.91;4956490;28;20093;-76
2023/10/29 08:49:05;;;;;;;0.98;0.82;;;;;;;16.80;100.00;100646.00;4975553;28;20164;-76
2023/10/29 08:51:32;;;;;;;5.10;3.33;;;;;;;17.39;100.00;100725.09;4971536;28;20133;-76
2023/10/29 08:53:57;;;;;;;0.55;0.55;;;;;;;17.21;100.00;100686.63;4991420;28;20035;-75
2023/10/29 08:56:23;;;;;;;0.45;0.45;;;;;;;17.53;100.00;100727.44;4976208;28;20046;-76
2023/10/29 09:02:44;;;;;;;2.38;2.17;;;;;;;17.60;100.00;100736.97;4975833;28;20050;-75
2023/10/29 09:11:53;;;;;;;1.08;0.85;;;;;;;17.46;100.00;100660.38;4964846;28;20097;-76
2023/10/29 09:14:19;;;;;;;1.30;0.88;;;;;;;17.96;100.00;100737.06;4975174;28;20027;-76
2023/10/29 09:16:47;;;;;;;0.63;0.63;;;;;;;18.04;100.00;100734.19;4974705;28;20049;-75
2023/10/29 09:19:14;;;;;;;1.70;1.60;;;;;;;18.14;100.00;100731.28;4973403;28;20042;-75
2023/10/29 09:25:53;;;;;;;0.65;0.57;;;;;;;17.66;100.00;100627.19;4961226;28;20075;-75
2023/10/29 09:31:42;;;;;;;0.32;0.25;;;;;;;18.41;100.00;100707.53;4975087;28;20101;-75
2023/10/29 09:34:10;;;;;;;0.30;0.30;;;;;;;18.45;100.00;100717.16;4974366;28;20043;-75
2023/10/29 09:36:35;;;;;;;1.63;1.52;;;;;;;18.54;100.00;100727.53;4974911;28;20545;-74
2023/10/29 09:39:01;;;;;;;1.45;1.33;;;;;;;18.43;100.00;100686.22;4967179;28;20054;-76
2023/10/29 09:41:27;;;;;;;0.63;0.40;;;;;;;18.21;100.00;100617.72;4958691;28;20019;-74
2023/10/29 09:43:53;;;;;;;0.93;0.70;;;;;;;18.41;100.00;100659.69;4960708;28;20069;-75
2023/10/29 09:46:21;;;;;;;0.30;0.30;;;;;;;18.56;100.00;100645.94;4948221;28;20393;-74
2023/10/29 09:48:48;;;;;;;1.40;1.30;;;;;;;18.95;100.00;100709.53;4964175;28;20129;-76
2023/10/29 09:51:15;;;;;;;0.85;0.75;;;;;;;19.02;99.58;100698.72;4970668;28;20039;-80
2023/10/29 09:53:41;;;;;;;0.50;0.50;;;;;;;19.11;98.10;100711.75;4975832;28;20126;-74
2023/10/29 09:56:12;;;;;;;0.82;0.68;;;;;;;18.78;97.48;100626.75;4970169;28;20039;-75
2023/10/29 09:58:38;;;;;;;0.88;0.63;;;;;;;19.17;95.99;100687.59;4969134;28;20077;-75
2023/10/29 10:01:04;;;;;;;6.75;1.20;;;;;;;18.96;94.13;100651.88;4967456;28;20053;-75
2023/10/29 10:03:31;;;;;;;0.32;0.30;;;;;;;19.40;93.66;100709.03;4969279;28;20046;-75
2023/10/29 10:05:57;;;;;;;0.30;0.30;;;;;;;19.51;93.73;100703.38;4971831;28;20037;-75
2023/10/29 10:11:44;;;;;;;4.47;0.95;;;;;;;19.03;88.69;100599.38;4974737;28;20486;-75
2023/10/29 10:14:26;;;;;;;0.73;0.73;;;;;;;19.87;85.38;100720.88;4973785;28;20047;-76
2023/10/29 10:20:50;;;;;;;11.48;0.90;;;;;;;20.04;78.10;100707.84;4970005;28;20050;-74
2023/10/29 10:23:16;;;;;;;5.13;1.80;;;;;;;20.18;78.97;100712.69;4966136;28;20070;-75
2023/10/29 10:25:41;;;;;;;0.43;0.43;;;;;;;20.22;76.29;100691.22;4972471;28;20075;-74
2023/10/29 10:28:07;;;;;;;0.57;0.57;;;;;;;20.33;71.61;100701.50;4973512;28;20045;-74
2023/10/29 10:30:37;;;;;;;0.50;0.45;;;;;;;20.02;70.20;100635.13;4966107;28;20038;-76
2023/10/29 10:33:20;;;;;;;0.50;0.50;;;;;;;19.81;67.51;100596.81;4965489;28;20050;-74
2023/10/29 10:35:59;;;;;;;0.10;0.10;;;;;;;20.38;66.72;100688.88;4969598;28;20030;-75
2023/10/29 10:38:26;;;;;;;0.40;0.40;;;;;;;20.13;66.46;100632.91;4966752;28;20042;-75
2023/10/29 10:44:18;;;;;;;0.40;0.40;;;;;;;20.42;62.20;100613.22;4973473;28;20096;-75
2023/10/29 10:46:53;;;;;;;2.63;1.27;;;;;;;20.94;61.12;100685.06;4969251;28;20514;-74
2023/10/29 10:49:20;;;;;;;0.20;0.20;;;;;;;20.62;61.91;100599.13;4971438;28;20043;-75
2023/10/29 10:51:47;;;;;;;21.23;1.10;;;;;;;19.79;61.74;100492.13;4970387;28;20047;-74
2023/10/29 10:54:53;;;;;;;1.92;1.83;;;;;;;21.28;61.13;100683.72;4973584;28;20463;-74
2023/10/29 10:57:36;;;;;;;0.20;0.20;;;;;;;21.25;60.60;100682.03;4966030;28;20397;-73
2023/10/29 11:07:37;;;;;;;0.40;0.40;;;;;;;21.66;59.76;100684.88;4979583;28;20058;-76
2023/10/29 11:10:33;;;;;;;0.47;0.38;;;;;;;21.73;60.04;100688.16;4953880;28;20134;-75
2023/10/29 11:13:17;;;;;;;0.17;0.17;;;;;;;20.90;59.71;100575.84;4961005;28;20050;-75
2023/10/29 11:19:45;;;;;;;0.30;0.30;;;;;;;21.83;59.11;100685.97;4973293;28;20178;-76
2023/10/29 11:22:31;;;;;;;0.10;0.10;;;;;;;21.60;58.90;100685.09;4973480;28;20537;-73
2023/10/29 11:25:08;;;;;;;1.85;1.20;;;;;;;21.83;57.92;100696.66;4970329;28;20423;-73
2023/10/29 11:31:16;;;;;;;0.30;0.30;;;;;;;21.94;57.38;100683.69;4973365;28;20042;-79
2023/10/29 11:33:48;;;;;;;0.20;0.20;;;;;;;21.84;56.67;100645.78;4973492;28;20043;-79
2023/10/29 11:36:31;;;;;;;0.20;0.20;;;;;;;22.04;56.80;100682.38;4971546;28;20131;-80
2023/10/29 11:39:14;;;;;;;0.30;0.20;;;;;;;22.11;56.70;100669.59;4971738;28;20023;-80
2023/10/29 11:41:49;;;;;;;0.47;0.47;;;;;;;21.39;56.89;100580.03;4971921;28;20053;-80
2023/10/29 11:48:09;;;;;;;1.65;1.35;;;;;;;21.95;57.17;100669.41;4994477;28;20093;-80
2023/10/29 11:50:36;;;;;;;0.20;0.20;;;;;;;21.57;56.65;100591.78;4996396;28;20077;-78
2023/10/29 11:56:25;;;;;;;0.30;0.30;;;;;;;21.80;56.47;100646.03;4996582;28;20077;-79
2023/10/29 12:02:15;;;;;;;0.73;0.38;;;;;;;22.03;56.31;100669.06;4996308;28;20528;-82
2023/10/29 12:04:40;;;;;;;0.50;0.50;;;;;;;21.73;56.14;100621.38;4995369;28;20035;-81
2023/10/29 12:07:25;;;;;;;0.20;0.20;;;;;;;21.92;56.90;100654.38;4994386;28;20061;-79
2023/10/29 12:13:12;;;;;;;1.05;0.45;;;;;;;22.12;57.06;100676.66;4995776;28;20050;-79
2023/10/29 12:15:39;;;;;;;0.22;0.22;;;;;;;22.10;55.97;100655.38;4985711;28;20031;-78
2023/10/29 12:18:05;;;;;;;0.20;0.20;;;;;;;22.14;56.30;100664.97;4976076;28;20070;-79
2023/10/29 12:20:31;;;;;;;0.20;0.20;;;;;;;22.10;56.52;100643.78;4974008;28;20034;-79
2023/10/29 12:26:33;;;;;;;0.50;0.50;;;;;;;22.19;55.41;100655.88;4971697;28;20049;-79
2023/10/29 12:28:59;;;;;;;0.40;0.40;;;;;;;21.89;55.65;100630.47;4975961;28;20494;-80
2023/10/29 12:34:51;;;;;;;0.98;0.77;;;;;;;21.74;55.43;100598.19;4976043;28;20053;-79
2023/10/29 12:37:35;;;;;;;0.65;0.55;;;;;;;22.17;56.07;100668.44;4975433;28;20169;-78
2023/10/29 12:40:01;;;;;;;0.52;0.52;;;;;;;22.24;56.16;100668.16;4975935;28;20035;-80
2023/10/29 12:49:16;;;;;;;0.43;0.35;;;;;;;22.08;56.00;100606.47;4974608;28;20086;-79
2023/10/29 12:51:42;;;;;;;1.15;1.00;;;;;;;22.39;56.27;100652.38;4975501;28;20351;-79
2023/10/29 12:54:16;;;;;;;0.35;0.35;;;;;;;22.36;56.00;100650.72;4975755;28;20030;-80
2023/10/29 12:57:18;;;;;;;0.57;0.45;;;;;;;22.30;55.69;100651.84;4976375;28;20023;-80
2023/10/29 12:59:44;;;;;;;0.95;0.95;;;;;;;22.31;55.48;100637.53;4973790;28;20027;-79
2023/10/29 13:02:23;;;;;;;0.40;0.40;;;;;;;21.68;55.16;100532.53;4975342;28;20038;-80
2023/10/29 13:08:13;;;;;;;0.30;0.25;;;;;;;22.27;55.39;100635.94;4975889;28;20041;-79
2023/10/29 13:14:02;;;;;;;0.35;0.35;;;;;;;21.98;55.63;100581.06;4974218;28;20105;-79
2023/10/29 13:16:28;;;;;;;1.95;1.10;;;;;;;22.23;55.44;100612.94;4974785;28;20030;-79
2023/10/29 13:18:56;;;;;;;0.30;0.30;;;;;;;22.32;55.41;100633.06;4975074;28;20471;-79
2023/10/29 13:21:21;;;;;;;0.73;0.55;;;;;;;21.92;55.20;100563.53;4974889;28;20061;-78
2023/10/29 13:27:15;;;;;;;0.17;0.17;;;;;;;22.18;57.06;100614.94;4966500;28;20057;-81
2023/10/29 13:29:42;;;;;;;0.20;0.20;;;;;;;22.04;57.11;100604.84;4975820;28;20035;-79
2023/10/29 13:32:08;;;;;;;0.10;0.10;;;;;;;22.13;55.50;100624.97;4975700;28;20058;-78
2023/10/29 13:37:56;;;;;;;0.73;0.70;;;;;;;22.24;55.58;100608.47;4974016;28;20064;-79
2023/10/29 13:43:43;;;;;;;0.20;0.20;;;;;;;22.28;55.78;100624.28;4975043;28;20541;-80
2023/10/29 13:49:30;;;;;;;0.20;0.20;;;;;;;21.84;55.88;100562.97;4976273;28;20045;-78
2023/10/29 13:51:56;;;;;;;0.45;0.45;;;;;;;22.11;55.46;100606.31;4975704;28;20038;-77
2023/10/29 13:54:22;;;;;;;0.20;0.20;;;;;;;21.58;55.95;100526.75;4976034;28;20035;-80
2023/10/29 13:56:48;;;;;;;1.08;0.98;;;;;;;22.23;55.27;100626.31;4976680;28;20523;-78
2023/10/29 14:02:36;;;;;;;0.77;0.70;;;;;;;22.09;55.74;100618.03;4977852;28;20069;-78
2023/10/29 14:05:02;;;;;;;1.65;1.55;;;;;;;22.02;55.22;100609.41;4977247;28;20081;-79
2023/10/29 14:07:27;;;;;;;0.68;0.68;;;;;;;22.13;55.85;100617.81;4975200;28;20046;-79
2023/10/29 14:09:53;;;;;;;0.20;0.20;;;;;;;22.00;56.17;100618.41;4974928;28;20042;-78
2023/10/29 14:12:18;;;;;;;1.08;1.02;;;;;;;22.05;55.07;100613.75;4974970;28;20038;-78
2023/10/29 14:14:44;;;;;;;1.33;1.23;;;;;;;22.06;55.09;100613.69;4974725;28;20383;-80
2023/10/29 14:17:09;;;;;;;2.85;1.75;;;;;;;21.52;56.39;100544.81;4972759;28;20043;-79
2023/10/29 14:19:36;;;;;;;0.55;0.50;;;;;;;21.77;57.24;100598.91;4974132;28;20042;-80
2023/10/29 14:25:59;;;;;;;0.10;0.10;;;;;;;21.77;58.51;100608.75;4973584;28;20121;-80
2023/10/29 14:28:26;;;;;;;1.15;0.85;;;;;;;21.20;59.16;100539.91;4971489;28;20134;-81
2023/10/29 14:30:51;;;;;;;0.50;0.50;;;;;;;21.65;59.09;100613.66;4972518;28;20035;-79
2023/10/29 14:33:17;;;;;;;1.02;0.90;;;;;;;21.64;59.69;100608.41;4972222;28;20363;-79
2023/10/29 14:39:04;;;;;;;1.00;0.82;;;;;;;21.18;64.04;100562.25;4974950;28;20455;-78
2023/10/29 14:41:30;;;;;;;1.23;1.13;;;;;;;21.19;65.61;100585.31;4971889;28;20050;-78
2023/10/29 14:43:55;;;;;;;0.43;0.40;;;;;;;21.27;65.24;100599.25;4973680;28;20120;-80
2023/10/29 14:46:21;;;;;;;0.10;0.10;;;;;;;21.14;66.78;100585.56;4955063;28;20077;-78
2023/10/29 14:52:08;;;;;;;3.63;1.85;;;;;;;20.62;69.37;100527.13;4954322;28;20445;-76
2023/10/29 14:57:55;;;;;;;0.47;0.45;;;;;;;20.89;68.91;100600.81;4954066;28;20098;-75